Data for 03/30/2010

Time Sea-Level Adjusted Pressure Absolute Pressure Temperature Relative Humidity Dew Point   
(mb) (inHg) (mb) (inHg) (C) (F) (%) (C) (F)
00:05 998 29.47 827 24.42 7.4 45.3 60 0.1 32.1
00:10 998 29.47 827 24.42 7.5 45.4 60 0.1 32.2
00:15 998 29.47 827 24.42 7.6 45.6 57 -0.4 31.3
00:20 997 29.44 826 24.39 7.8 46 57 -0.3 31.5
00:25 997 29.44 827 24.42 8 46.4 55 -0.6 31
00:30 997 29.44 826 24.39 8 46.4 56 -0.2 31.6
00:35 997 29.44 826 24.39 8.1 46.6 51 -1.3 29.6
00:40 997 29.44 826 24.39 8.2 46.8 52 -1.1 30
00:45 997 29.44 826 24.39 8.4 47.1 52 -0.8 30.5
00:50 997 29.44 826 24.39 8.4 47.1 51 -1.1 29.9
00:55 997 29.44 826 24.39 8.5 47.2 49 -1.6 29.2
01:00 997 29.44 826 24.39 8.5 47.3 50 -1.1 29.9
01:05 997 29.44 826 24.39 8.3 46.9 52 -1 30.2
01:10 997 29.44 826 24.39 8.3 46.9 51 -1.4 29.6
01:15 997 29.44 826 24.39 8.3 46.9 52 -1 30.2
01:20 997 29.44 826 24.39 8 46.4 53 -1.1 30.1
01:25 997 29.44 826 24.39 8 46.5 52 -1.1 30
01:30 997 29.44 826 24.39 8 46.4 51 -1.5 29.2
01:35 997 29.44 826 24.39 8.3 47 51 -1.3 29.7
01:40 997 29.44 826 24.39 8.2 46.8 51 -1.3 29.6
01:45 997 29.44 826 24.39 8.1 46.5 52 -1.1 30.1
01:50 997 29.44 826 24.39 7.7 45.9 54 -1.1 30.1
01:55 997 29.44 826 24.39 7.4 45.4 58 -0.4 31.3
02:00 997 29.44 826 24.39 6.8 44.3 60 -0.4 31.3
02:05 997 29.44 826 24.39 6.6 43.8 60 -0.5 31
02:10 997 29.44 826 24.39 6.4 43.6 61 -0.5 31.1
02:15 997 29.44 826 24.39 6.4 43.5 61 -0.6 31
02:20 997 29.44 826 24.39 6.4 43.5 60 -0.9 30.4
02:25 996 29.41 826 24.39 6.5 43.7 59 -1.1 30.1
02:30 996 29.41 826 24.39 6.6 43.9 59 -0.9 30.4
02:35 997 29.44 826 24.39 6.4 43.6 62 -0.4 31.4
02:40 997 29.44 826 24.39 5.8 42.5 64 -0.6 31
02:45 997 29.44 826 24.39 5.5 41.9 64 -0.7 30.7
02:50 997 29.44 826 24.39 5.6 42.2 63 -0.8 30.6
02:55 996 29.41 826 24.39 5.7 42.2 62 -1 30.2
03:00 996 29.41 826 24.39 5.9 42.6 61 -1.1 30.1
03:05 996 29.41 826 24.39 6.1 43 60 -0.9 30.3
03:10 996 29.41 826 24.39 6.2 43.1 60 -1 30.2
03:15 997 29.44 826 24.39 6.3 43.3 58 -1.3 29.7
03:20 997 29.44 826 24.39 6.8 44.2 55 -1.6 29.2
03:25 997 29.44 826 24.39 7.4 45.3 57 -0.5 31
03:30 997 29.44 826 24.39 7.3 45.2 59 -0.1 31.9
03:35 997 29.44 826 24.39 6.7 44 66 0.8 33.4
03:40 997 29.44 826 24.39 6 42.8 66 0.2 32.4
03:45 997 29.44 826 24.39 5.9 42.6 65 -0.1 31.9
03:50 997 29.44 826 24.39 5.9 42.6 66 -0 32
03:55 997 29.44 826 24.39 5.8 42.5 64 -0.5 31.2
04:00 997 29.44 826 24.39 6 42.9 65 0 32
04:05 997 29.44 826 24.39 5.9 42.6 67 0.3 32.6
04:10 997 29.44 826 24.39 5.7 42.2 69 0.4 32.7
04:15 998 29.47 827 24.42 5.3 41.5 76 1.3 34.4
04:20 998 29.47 827 24.42 4.1 39.4 82 1.4 34.5
04:25 998 29.47 827 24.42 3.2 37.8 87 1.3 34.4
04:30 998 29.47 827 24.42 3 37.4 89 1.3 34.4
04:35 998 29.47 827 24.42 3 37.4 89 1.4 34.5
04:40 998 29.47 827 24.42 2.9 37.2 90 1.4 34.4
04:45 998 29.47 828 24.45 2.8 37 90 1.3 34.3
04:50 998 29.47 828 24.45 2.7 36.9 90 1.2 34.2
04:55 998 29.47 828 24.45 2.7 36.8 91 1.3 34.3
05:00 999 29.5 828 24.45 2.6 36.7 91 1.3 34.4
05:05 999 29.5 828 24.45 2.6 36.7 91 1.3 34.4
05:10 999 29.5 828 24.45 2.4 36.4 90 1 33.8
05:15 999 29.5 828 24.45 2.1 35.8 90 0.7 33.3
05:20 999 29.5 828 24.45 2 35.5 92 0.8 33.4
05:25 999 29.5 828 24.45 1.9 35.5 92 0.8 33.4
05:30 999 29.5 828 24.45 1.9 35.4 92 0.8 33.4
05:35 999 29.5 828 24.45 1.9 35.4 92 0.7 33.3
05:40 999 29.5 828 24.45 1.8 35.2 92 0.6 33.2
05:45 999 29.5 828 24.45 1.5 34.6 93 0.5 32.9
05:50 999 29.5 828 24.45 1.1 34 94 0.2 32.4
05:55 999 29.5 828 24.45 0.7 33.3 95 0 32.1
06:00 998 29.47 828 24.45 0.4 32.7 96 -0.2 31.7
06:05 998 29.47 827 24.42 0.2 32.4 97 -0.3 31.5
06:10 998 29.47 828 24.45 0.1 32.2 97 -0.3 31.5
06:15 998 29.47 828 24.45 0.1 32.1 98 -0.2 31.6
06:20 999 29.5 828 24.45 0.1 32.2 98 -0.2 31.7
06:25 999 29.5 828 24.45 0.1 32.1 98 -0.2 31.7
06:30 999 29.5 828 24.45 0.2 32.3 99 -0 31.9
06:35 999 29.5 828 24.45 0.4 32.6 99 0.2 32.3
06:40 999 29.5 828 24.45 0.4 32.8 98 0.2 32.4
06:45 999 29.5 828 24.45 0.3 32.6 98 0.1 32.2
06:50 998 29.47 828 24.45 0.2 32.3 98 -0 31.9
06:55 998 29.47 828 24.45 0.1 32.2 98 -0.1 31.8
07:00 998 29.47 828 24.45 0 32.1 99 -0.2 31.7
07:05 998 29.47 828 24.45 0 32 99 -0.2 31.7
07:10 998 29.47 828 24.45 0.1 32.1 99 -0.1 31.8
07:15 998 29.47 828 24.45 0.1 32.1 99 -0.1 31.8
07:20 998 29.47 828 24.45 0.1 32.2 99 -0.1 31.9
07:25 998 29.47 828 24.45 0.1 32.1 99 -0.1 31.8
07:30 998 29.47 827 24.42 -0 31.9 99 -0.2 31.6
07:35 998 29.47 828 24.45 -0 31.9 99 -0.2 31.7
07:40 998 29.47 828 24.45 -0 32 99 -0.2 31.7
07:45 998 29.47 828 24.45 0 32.1 99 -0.1 31.8
07:50 999 29.5 828 24.45 0 32.1 99 -0.1 31.8
07:55 999 29.5 828 24.45 0.1 32.1 99 -0 31.9
08:00 999 29.5 828 24.45 0.1 32.2 99 -0 32
08:05 998 29.47 828 24.45 0.2 32.3 99 0.1 32.1
08:10 998 29.47 827 24.42 0.2 32.4 99 0.1 32.2
08:15 998 29.47 827 24.42 0.3 32.5 99 0.1 32.2
08:20 998 29.47 827 24.42 0.3 32.6 99 0.2 32.4
08:25 998 29.47 827 24.42 0.3 32.6 99 0.2 32.3
08:30 998 29.47 827 24.42 0.3 32.6 99 0.1 32.2
08:35 998 29.47 827 24.42 0.2 32.4 99 0 32.1
08:40 998 29.47 827 24.42 0.2 32.4 99 0 32
08:45 998 29.47 828 24.45 0.4 32.6 99 0.2 32.3
08:50 998 29.47 828 24.45 0.4 32.8 98 0.2 32.4
08:55 999 29.5 828 24.45 0.5 32.8 98 0.2 32.3
09:00 999 29.5 828 24.45 0.6 33 97 0.2 32.3
09:05 999 29.5 828 24.45 0.8 33.4 96 0.2 32.3
09:10 999 29.5 828 24.45 1 33.8 94 0.2 32.4
09:15 999 29.5 828 24.45 1.1 34 94 0.3 32.5
09:20 999 29.5 828 24.45 1.2 34.2 94 0.3 32.6
09:25 999 29.5 828 24.45 1.2 34.1 94 0.3 32.5
09:30 999 29.5 828 24.45 1.2 34.2 93 0.1 32.2
09:35 999 29.5 828 24.45 1.2 34.2 93 0.1 32.2
09:40 999 29.5 828 24.45 1.5 34.7 91 0.2 32.4
09:45 999 29.5 828 24.45 1.9 35.4 89 0.3 32.5
09:50 999 29.5 828 24.45 2.3 36.1 83 -0.3 31.5
09:55 999 29.5 828 24.45 2.3 36.1 83 -0.3 31.4
10:00 998 29.47 828 24.45 2.6 36.7 81 -0.3 31.5
10:05 999 29.5 828 24.45 2.5 36.4 81 -0.5 31
10:10 999 29.5 828 24.45 2.7 36.9 78 -0.7 30.7
10:15 999 29.5 828 24.45 2.8 37 78 -0.7 30.7
10:20 999 29.5 828 24.45 3.4 38.1 78 -0.1 31.8
10:25 999 29.5 828 24.45 3.2 37.7 77 -0.5 31.1
10:30 999 29.5 828 24.45 2.9 37.3 79 -0.3 31.4
10:35 999 29.5 828 24.45 2.9 37.1 80 -0.2 31.6
10:40 999 29.5 828 24.45 2.7 36.9 83 0.1 32.2
10:45 999 29.5 828 24.45 2.7 36.8 84 0.3 32.5
10:50 999 29.5 828 24.45 2.5 36.6 85 0.3 32.6
10:55 999 29.5 828 24.45 2.6 36.7 86 0.5 32.9
11:00 999 29.5 828 24.45 2.6 36.7 86 0.5 32.9
11:05 999 29.5 828 24.45 2.1 35.8 90 0.6 33.1
11:10 999 29.5 828 24.45 1.5 34.8 92 0.4 32.6
11:15 999 29.5 828 24.45 0.9 33.6 95 0.2 32.3
11:20 999 29.5 828 24.45 1 33.7 93 -0 32
11:25 999 29.5 828 24.45 0.6 33.2 95 -0.1 31.7
11:30 999 29.5 828 24.45 0.6 33 96 0 32
11:35 999 29.5 828 24.45 0.9 33.6 96 0.2 32.4
11:40 999 29.5 828 24.45 0.9 33.7 94 0.1 32.2
11:45 999 29.5 828 24.45 1 33.7 93 -0.1 31.8
11:50 999 29.5 828 24.45 0.7 33.2 93 -0.3 31.5
11:55 999 29.5 828 24.45 0.2 32.4 94 -0.6 30.9
12:00 999 29.5 828 24.45 -0.1 31.8 94 -0.9 30.3
12:05 999 29.5 828 24.45 -0.3 31.5 95 -1 30.2
12:10 999 29.5 828 24.45 -0.3 31.6 96 -0.9 30.4
12:15 999 29.5 828 24.45 -0.3 31.5 95 -1 30.3
12:20 999 29.5 828 24.45 -0.3 31.5 95 -1 30.3
12:25 999 29.5 828 24.45 -0.2 31.6 95 -0.9 30.4
12:30 999 29.5 828 24.45 -0.1 31.8 95 -0.8 30.6
12:35 999 29.5 828 24.45 0.1 32.2 95 -0.6 30.8
12:40 999 29.5 828 24.45 0.2 32.3 94 -0.7 30.7
12:45 999 29.5 828 24.45 0.2 32.3 94 -0.7 30.7
12:50 999 29.5 828 24.45 0.1 32.2 94 -0.7 30.8
12:55 999 29.5 828 24.45 0.2 32.3 94 -0.7 30.7
13:00 999 29.5 828 24.45 0.1 32.2 94 -0.8 30.6
13:05 999 29.5 828 24.45 0.1 32.1 93 -0.9 30.4
13:10 999 29.5 828 24.45 0 32.1 94 -0.8 30.6
13:15 999 29.5 829 24.48 0.1 32.3 93 -0.8 30.5
13:20 1000 29.53 829 24.48 0.2 32.4 93 -0.7 30.7
13:25 1000 29.53 829 24.48 0.4 32.8 93 -0.5 31.1
13:30 999 29.5 829 24.48 0.7 33.3 92 -0.5 31.1
13:35 999 29.5 829 24.48 0.9 33.7 90 -0.5 31.1
13:40 999 29.5 828 24.45 1 33.8 89 -0.6 31
13:45 999 29.5 828 24.45 1.3 34.3 84 -1.2 29.9
13:50 999 29.5 828 24.45 1.1 34 88 -0.7 30.8
13:55 999 29.5 829 24.48 1.8 35.2 84 -0.6 30.9
14:00 999 29.5 829 24.48 2.2 36 79 -1.1 30.1
14:05 999 29.5 829 24.48 2.4 36.2 78 -1.2 29.9
14:10 999 29.5 829 24.48 1.8 35.3 81 -1 30.2
14:15 999 29.5 828 24.45 1.7 35.1 79 -1.6 29.2
14:20 999 29.5 828 24.45 1.6 34.8 80 -1.4 29.4
14:25 999 29.5 828 24.45 1.5 34.6 81 -1.4 29.5
14:30 999 29.5 828 24.45 2 35.5 78 -1.4 29.4
14:35 999 29.5 828 24.45 2.6 36.6 76 -1.2 29.8
14:40 999 29.5 828 24.45 2.7 36.8 77 -1 30.2
14:45 999 29.5 828 24.45 2.7 36.8 77 -0.9 30.3
14:50 999 29.5 828 24.45 2.1 35.7 80 -1 30.1
14:55 999 29.5 828 24.45 1.6 34.8 82 -1.2 29.9
15:00 999 29.5 828 24.45 1.3 34.4 84 -1 30.1
15:05 999 29.5 828 24.45 1.1 34 85 -1.1 30
15:10 999 29.5 828 24.45 1.2 34.1 85 -1.1 30.1
15:15 999 29.5 829 24.48 0.9 33.5 87 -1.1 29.9
15:20 1000 29.53 829 24.48 0.6 33 88 -1.2 29.8
15:25 999 29.5 829 24.48 0.5 32.8 90 -1.1 30.1
15:30 999 29.5 829 24.48 0.2 32.4 90 -1.3 29.7
15:35 999 29.5 828 24.45 0.1 32.2 93 -0.9 30.4
15:40 999 29.5 829 24.48 0.3 32.6 92 -0.9 30.4
15:45 999 29.5 828 24.45 0.2 32.4 92 -1 30.2
15:50 999 29.5 828 24.45 0 32.1 93 -0.9 30.4
15:55 999 29.5 828 24.45 0 32 94 -0.8 30.5
16:00 999 29.5 828 24.45 0.1 32.2 93 -0.8 30.5
16:05 999 29.5 829 24.48 0.1 32.3 93 -0.9 30.4
16:10 999 29.5 828 24.45 0.2 32.3 93 -0.8 30.6
16:15 999 29.5 828 24.45 0.4 32.6 93 -0.7 30.8
16:20 999 29.5 828 24.45 0.7 33.2 91 -0.7 30.7
16:25 999 29.5 828 24.45 0.7 33.2 90 -0.8 30.6
16:30 999 29.5 828 24.45 0.7 33.2 91 -0.7 30.8
16:35 999 29.5 828 24.45 0.8 33.4 91 -0.6 31
16:40 999 29.5 828 24.45 1 33.8 88 -0.7 30.8
16:45 999 29.5 828 24.45 0.8 33.4 89 -0.8 30.6
16:50 999 29.5 828 24.45 0.5 32.9 90 -0.9 30.4
16:55 999 29.5 828 24.45 0.1 32.2 92 -1 30.2
17:00 999 29.5 828 24.45 -0.2 31.7 93 -1.2 29.9
17:05 999 29.5 828 24.45 -0.3 31.5 93 -1.2 29.9
17:10 999 29.5 828 24.45 -0.2 31.6 93 -1.3 29.7
17:15 999 29.5 828 24.45 -0.1 31.9 90 -1.5 29.4
17:20 998 29.47 828 24.45 0.1 32.1 89 -1.6 29.2
17:25 998 29.47 828 24.45 -0.1 31.8 90 -1.6 29.1
17:30 999 29.5 828 24.45 0 32.1 89 -1.5 29.2
17:35 999 29.5 828 24.45 -0.1 31.8 90 -1.5 29.3
17:40 999 29.5 828 24.45 -0.3 31.4 91 -1.6 29.2
17:45 999 29.5 828 24.45 -0.4 31.2 92 -1.6 29.2
17:50 999 29.5 828 24.45 -0.4 31.2 93 -1.5 29.3
17:55 999 29.5 828 24.45 -0.4 31.3 94 -1.3 29.6
18:00 999 29.5 829 24.48 -0.4 31.3 95 -1.1 30
18:05 999 29.5 829 24.48 -0.5 31 96 -1.1 30
18:10 999 29.5 829 24.48 -0.6 30.9 97 -1.1 30.1
18:15 1000 29.53 829 24.48 -0.7 30.7 97 -1.1 29.9
18:20 1000 29.53 829 24.48 -1 30.3 97 -1.3 29.6
18:25 1000 29.53 829 24.48 -1 30.1 98 -1.3 29.7
18:30 1000 29.53 829 24.48 -1.1 30 99 -1.3 29.7
18:35 1000 29.53 829 24.48 -1.2 29.9 99 -1.3 29.6
18:40 1000 29.53 829 24.48 -1.1 30.1 99 -1.2 29.8
18:45 1000 29.53 829 24.48 -1.1 30 99 -1.3 29.7
18:50 1000 29.53 829 24.48 -1.1 30 99 -1.3 29.7
18:55 1000 29.53 829 24.48 -1.1 30.1 97 -1.5 29.3
19:00 1000 29.53 829 24.48 -1.1 30.1 97 -1.6 29.2
19:05 1000 29.53 830 24.51 -1.1 29.9 96 -1.7 29
19:10 1000 29.53 830 24.51 -1.2 29.9 96 -1.8 28.7
19:15 1000 29.53 830 24.51 -1.2 29.9 95 -1.9 28.6
19:20 1000 29.53 830 24.51 -1.3 29.7 95 -2 28.5
19:25 1000 29.53 830 24.51 -1.3 29.7 95 -2 28.4
19:30 1000 29.53 830 24.51 -1.2 29.8 95 -2 28.4
19:35 1001 29.56 830 24.51 -1.2 29.8 94 -2 28.4
19:40 1001 29.56 830 24.51 -1.2 29.8 95 -1.9 28.6
19:45 1001 29.56 830 24.51 -1.3 29.6 96 -1.9 28.6
19:50 1001 29.56 830 24.51 -1.3 29.7 95 -2.1 28.3
19:55 1001 29.56 830 24.51 -1.1 29.9 94 -2 28.4
20:00 1001 29.56 830 24.51 -1.1 30.1 94 -2 28.4
20:05 1001 29.56 830 24.51 -1.1 30.1 92 -2.1 28.1
20:10 1001 29.56 830 24.51 -1 30.2 91 -2.3 27.9
20:15 1001 29.56 830 24.51 -1 30.2 90 -2.4 27.7
20:20 1001 29.56 830 24.51 -0.9 30.3 88 -2.7 27.1
20:25 1001 29.56 830 24.51 -0.8 30.5 89 -2.5 27.6
20:30 1001 29.56 830 24.51 -0.7 30.8 88 -2.5 27.6
20:35 1001 29.56 830 24.51 -0.8 30.6 88 -2.5 27.4
20:40 1001 29.56 830 24.51 -0.9 30.4 88 -2.6 27.4
20:45 1001 29.56 830 24.51 -0.7 30.7 87 -2.6 27.3
20:50 1001 29.56 831 24.54 -0.7 30.7 87 -2.7 27.2
20:55 1001 29.56 831 24.54 -0.5 31 84 -2.9 26.7
21:00 1002 29.59 831 24.54 -0.4 31.2 84 -2.9 26.8
21:05 1002 29.59 831 24.54 -0.2 31.6 84 -2.7 27.1
21:10 1002 29.59 831 24.54 -0.2 31.6 87 -2.2 28
21:15 1002 29.59 831 24.54 -0.4 31.2 87 -2.3 27.8
21:20 1002 29.59 831 24.54 -0.7 30.7 88 -2.5 27.5
21:25 1002 29.59 831 24.54 -0.9 30.4 87 -2.8 26.9
21:30 1002 29.59 831 24.54 -0.9 30.4 87 -2.8 26.9
21:35 1002 29.59 831 24.54 -0.8 30.6 87 -2.7 27.2
21:40 1002 29.59 831 24.54 -0.8 30.6 87 -2.6 27.3
21:45 1002 29.59 831 24.54 -0.7 30.7 87 -2.7 27.1
21:50 1002 29.59 831 24.54 -0.8 30.5 89 -2.5 27.5
21:55 1002 29.59 831 24.54 -0.9 30.4 87 -2.9 26.8
22:00 1002 29.59 832 24.57 -0.9 30.4 88 -2.6 27.3
22:05 1003 29.62 832 24.57 -0.9 30.4 86 -2.9 26.8
22:10 1003 29.62 832 24.57 -0.8 30.5 89 -2.4 27.7
22:15 1003 29.62 832 24.57 -0.7 30.7 85 -3 26.5
22:20 1002 29.59 832 24.57 -0.4 31.3 84 -2.7 27.1
22:25 1003 29.62 832 24.57 -0.3 31.5 82 -3 26.7
22:30 1003 29.62 832 24.57 -0.1 31.8 83 -2.6 27.3
22:35 1003 29.62 832 24.57 -0.2 31.6 84 -2.6 27.3
22:40 1003 29.62 832 24.57 -0.5 31.2 85 -2.7 27.2
22:45 1003 29.62 832 24.57 -0.8 30.6 88 -2.6 27.3
22:50 1003 29.62 832 24.57 -1 30.3 87 -2.9 26.8
22:55 1003 29.62 832 24.57 -0.9 30.4 87 -2.7 27.1
23:00 1003 29.62 832 24.57 -0.9 30.4 89 -2.5 27.5
23:05 1003 29.62 832 24.57 -0.8 30.5 89 -2.5 27.6
23:10 1003 29.62 832 24.57 -0.9 30.4 89 -2.5 27.6
23:15 1003 29.62 832 24.57 -1 30.3 89 -2.5 27.5
23:20 1003 29.62 832 24.57 -1.1 30.1 89 -2.7 27.2
23:25 1003 29.62 832 24.57 -1.1 30 87 -3 26.7
23:30 1003 29.62 832 24.57 -1 30.2 87 -2.8 26.9
23:35 1003 29.62 832 24.57 -0.8 30.5 86 -2.9 26.7
23:40 1003 29.62 832 24.57 -0.7 30.7 87 -2.7 27.2
23:45 1003 29.62 832 24.57 -0.7 30.8 86 -2.8 27
23:50 1003 29.62 832 24.57 -0.7 30.7 83 -3.3 26.1
23:55 1003 29.62 833 24.6 -1.2 29.9 80 -4.2 24.4
24:00 1003 29.62 833 24.6 -1.2 29.9 78 -4.5 23.9